sensor_id;sensor_type;location;lat;lon;timestamp;temperature;humidity
11140;DHT22;5624;49.388;11.350;2022-07-29T00:00:42;20.70;43.50
11140;DHT22;5624;49.388;11.350;2022-07-29T00:03:10;20.60;43.60
11140;DHT22;5624;49.388;11.350;2022-07-29T00:05:39;20.60;43.60
11140;DHT22;5624;49.388;11.350;2022-07-29T00:08:05;20.70;43.50
11140;DHT22;5624;49.388;11.350;2022-07-29T00:10:31;20.50;43.80
11140;DHT22;5624;49.388;11.350;2022-07-29T00:12:56;20.50;43.90
11140;DHT22;5624;49.388;11.350;2022-07-29T00:15:22;20.50;44.00
11140;DHT22;5624;49.388;11.350;2022-07-29T00:17:48;20.50;44.10
11140;DHT22;5624;49.388;11.350;2022-07-29T00:20:13;20.60;43.90
11140;DHT22;5624;49.388;11.350;2022-07-29T00:22:39;20.50;44.00
11140;DHT22;5624;49.388;11.350;2022-07-29T00:25:05;20.40;44.10
11140;DHT22;5624;49.388;11.350;2022-07-29T00:27:32;20.40;44.00
11140;DHT22;5624;49.388;11.350;2022-07-29T00:29:57;20.40;44.00
11140;DHT22;5624;49.388;11.350;2022-07-29T00:32:23;20.40;44.20
11140;DHT22;5624;49.388;11.350;2022-07-29T00:34:48;20.40;44.20
11140;DHT22;5624;49.388;11.350;2022-07-29T00:37:33;20.40;44.00
11140;DHT22;5624;49.388;11.350;2022-07-29T00:39:58;20.40;44.10
11140;DHT22;5624;49.388;11.350;2022-07-29T00:42:24;20.40;43.90
11140;DHT22;5624;49.388;11.350;2022-07-29T00:44:50;20.50;43.90
11140;DHT22;5624;49.388;11.350;2022-07-29T00:47:15;20.40;43.70
11140;DHT22;5624;49.388;11.350;2022-07-29T00:49:42;20.40;43.90
11140;DHT22;5624;49.388;11.350;2022-07-29T00:52:09;20.40;44.00
11140;DHT22;5624;49.388;11.350;2022-07-29T00:54:35;20.40;44.30
11140;DHT22;5624;49.388;11.350;2022-07-29T00:57:03;20.40;44.20
11140;DHT22;5624;49.388;11.350;2022-07-29T00:59:29;20.30;44.50
11140;DHT22;5624;49.388;11.350;2022-07-29T01:01:55;20.30;44.60
11140;DHT22;5624;49.388;11.350;2022-07-29T01:04:21;20.30;44.60
11140;DHT22;5624;49.388;11.350;2022-07-29T01:06:48;20.30;44.90
11140;DHT22;5624;49.388;11.350;2022-07-29T01:09:15;20.20;45.40
11140;DHT22;5624;49.388;11.350;2022-07-29T01:11:42;20.20;46.40
11140;DHT22;5624;49.388;11.350;2022-07-29T01:14:09;20.00;48.10
11140;DHT22;5624;49.388;11.350;2022-07-29T01:16:59;19.70;49.80
11140;DHT22;5624;49.388;11.350;2022-07-29T01:30:01;19.00;53.40
11140;DHT22;5624;49.388;11.350;2022-07-29T01:32:29;18.90;54.10
11140;DHT22;5624;49.388;11.350;2022-07-29T01:37:45;18.70;55.60
11140;DHT22;5624;49.388;11.350;2022-07-29T01:42:51;18.60;56.30
11140;DHT22;5624;49.388;11.350;2022-07-29T01:45:21;18.50;56.80
11140;DHT22;5624;49.388;11.350;2022-07-29T01:48:05;18.50;56.40
11140;DHT22;5624;49.388;11.350;2022-07-29T01:51:14;18.50;56.20
11140;DHT22;5624;49.388;11.350;2022-07-29T01:53:42;18.50;55.70
11140;DHT22;5624;49.388;11.350;2022-07-29T01:56:10;18.50;55.30
11140;DHT22;5624;49.388;11.350;2022-07-29T01:58:40;18.60;55.10
11140;DHT22;5624;49.388;11.350;2022-07-29T02:01:08;18.50;55.10
11140;DHT22;5624;49.388;11.350;2022-07-29T02:03:36;18.60;54.50
11140;DHT22;5624;49.388;11.350;2022-07-29T02:06:06;18.50;55.00
11140;DHT22;5624;49.388;11.350;2022-07-29T02:08:33;18.50;56.00
11140;DHT22;5624;49.388;11.350;2022-07-29T02:11:00;18.50;56.00
11140;DHT22;5624;49.388;11.350;2022-07-29T02:13:29;18.50;56.20
11140;DHT22;5624;49.388;11.350;2022-07-29T02:15:58;18.40;56.80
11140;DHT22;5624;49.388;11.350;2022-07-29T02:18:27;18.30;56.50
11140;DHT22;5624;49.388;11.350;2022-07-29T02:20:54;18.30;57.00
11140;DHT22;5624;49.388;11.350;2022-07-29T02:23:23;18.20;57.20
11140;DHT22;5624;49.388;11.350;2022-07-29T02:25:51;18.20;56.40
11140;DHT22;5624;49.388;11.350;2022-07-29T02:28:19;18.20;57.10
11140;DHT22;5624;49.388;11.350;2022-07-29T02:30:46;18.30;55.60
11140;DHT22;5624;49.388;11.350;2022-07-29T02:33:14;18.40;55.60
11140;DHT22;5624;49.388;11.350;2022-07-29T02:35:41;18.40;55.70
11140;DHT22;5624;49.388;11.350;2022-07-29T02:38:10;18.30;55.80
11140;DHT22;5624;49.388;11.350;2022-07-29T02:41:15;18.30;54.80
11140;DHT22;5624;49.388;11.350;2022-07-29T02:43:43;18.20;56.30
11140;DHT22;5624;49.388;11.350;2022-07-29T02:46:14;18.10;56.60
11140;DHT22;5624;49.388;11.350;2022-07-29T02:48:48;18.10;55.80
11140;DHT22;5624;49.388;11.350;2022-07-29T02:51:21;18.40;54.20
11140;DHT22;5624;49.388;11.350;2022-07-29T02:53:51;18.60;53.70
11140;DHT22;5624;49.388;11.350;2022-07-29T02:56:23;18.40;54.60
11140;DHT22;5624;49.388;11.350;2022-07-29T02:58:54;18.40;54.40
11140;DHT22;5624;49.388;11.350;2022-07-29T03:01:24;18.40;53.90
11140;DHT22;5624;49.388;11.350;2022-07-29T03:03:53;18.30;53.90
11140;DHT22;5624;49.388;11.350;2022-07-29T03:06:21;18.30;53.80
11140;DHT22;5624;49.388;11.350;2022-07-29T03:08:48;18.30;53.70
11140;DHT22;5624;49.388;11.350;2022-07-29T03:11:15;18.30;53.30
11140;DHT22;5624;49.388;11.350;2022-07-29T03:13:42;18.30;53.40
11140;DHT22;5624;49.388;11.350;2022-07-29T03:16:08;18.30;52.90
11140;DHT22;5624;49.388;11.350;2022-07-29T03:18:34;18.40;52.50
11140;DHT22;5624;49.388;11.350;2022-07-29T03:21:00;18.30;52.30
11140;DHT22;5624;49.388;11.350;2022-07-29T03:23:26;18.40;51.70
11140;DHT22;5624;49.388;11.350;2022-07-29T03:25:54;18.50;51.50
11140;DHT22;5624;49.388;11.350;2022-07-29T03:28:20;18.50;51.20
11140;DHT22;5624;49.388;11.350;2022-07-29T03:30:46;18.50;51.20
11140;DHT22;5624;49.388;11.350;2022-07-29T03:33:12;18.50;51.30
11140;DHT22;5624;49.388;11.350;2022-07-29T03:35:38;18.50;51.20
11140;DHT22;5624;49.388;11.350;2022-07-29T03:38:04;18.50;51.30
11140;DHT22;5624;49.388;11.350;2022-07-29T03:40:51;18.50;51.30
11140;DHT22;5624;49.388;11.350;2022-07-29T03:43:18;18.50;51.40
11140;DHT22;5624;49.388;11.350;2022-07-29T03:45:49;18.50;51.50
11140;DHT22;5624;49.388;11.350;2022-07-29T03:48:19;18.40;51.90
11140;DHT22;5624;49.388;11.350;2022-07-29T03:50:46;18.40;52.10
11140;DHT22;5624;49.388;11.350;2022-07-29T03:53:12;18.40;52.20
11140;DHT22;5624;49.388;11.350;2022-07-29T03:55:42;18.40;52.40
11140;DHT22;5624;49.388;11.350;2022-07-29T03:58:10;18.30;52.90
11140;DHT22;5624;49.388;11.350;2022-07-29T04:00:38;18.30;53.60
11140;DHT22;5624;49.388;11.350;2022-07-29T04:03:04;18.30;54.00
11140;DHT22;5624;49.388;11.350;2022-07-29T04:05:30;18.30;54.30
11140;DHT22;5624;49.388;11.350;2022-07-29T04:07:56;18.20;54.70
11140;DHT22;5624;49.388;11.350;2022-07-29T04:10:22;18.20;55.40
11140;DHT22;5624;49.388;11.350;2022-07-29T04:12:50;18.30;55.00
11140;DHT22;5624;49.388;11.350;2022-07-29T04:15:16;18.30;55.00
11140;DHT22;5624;49.388;11.350;2022-07-29T04:17:42;18.30;55.10
11140;DHT22;5624;49.388;11.350;2022-07-29T04:20:09;18.30;54.90
11140;DHT22;5624;49.388;11.350;2022-07-29T04:22:35;18.30;55.20
11140;DHT22;5624;49.388;11.350;2022-07-29T04:25:00;18.30;55.40
11140;DHT22;5624;49.388;11.350;2022-07-29T04:27:26;18.30;55.50
11140;DHT22;5624;49.388;11.350;2022-07-29T04:29:52;18.30;56.60
11140;DHT22;5624;49.388;11.350;2022-07-29T04:32:17;18.30;55.60
11140;DHT22;5624;49.388;11.350;2022-07-29T04:34:43;18.30;55.10
11140;DHT22;5624;49.388;11.350;2022-07-29T04:37:12;18.30;55.10
11140;DHT22;5624;49.388;11.350;2022-07-29T04:39:38;18.40;55.10
11140;DHT22;5624;49.388;11.350;2022-07-29T04:42:04;18.30;55.10
11140;DHT22;5624;49.388;11.350;2022-07-29T04:44:30;18.40;55.00
11140;DHT22;5624;49.388;11.350;2022-07-29T04:46:56;18.50;55.00
11140;DHT22;5624;49.388;11.350;2022-07-29T04:49:24;18.60;54.60
11140;DHT22;5624;49.388;11.350;2022-07-29T04:51:49;18.70;54.50
11140;DHT22;5624;49.388;11.350;2022-07-29T04:54:15;18.60;54.80
11140;DHT22;5624;49.388;11.350;2022-07-29T04:56:41;18.60;55.40
11140;DHT22;5624;49.388;11.350;2022-07-29T04:59:07;18.60;55.20
11140;DHT22;5624;49.388;11.350;2022-07-29T05:01:33;18.70;55.10
11140;DHT22;5624;49.388;11.350;2022-07-29T05:03:59;18.70;54.70
11140;DHT22;5624;49.388;11.350;2022-07-29T05:06:25;18.70;55.10
11140;DHT22;5624;49.388;11.350;2022-07-29T05:08:51;18.70;55.00
11140;DHT22;5624;49.388;11.350;2022-07-29T05:11:16;18.70;54.50
11140;DHT22;5624;49.388;11.350;2022-07-29T05:13:42;18.80;54.70
11140;DHT22;5624;49.388;11.350;2022-07-29T05:16:08;18.80;54.30
11140;DHT22;5624;49.388;11.350;2022-07-29T05:18:34;18.90;54.50
11140;DHT22;5624;49.388;11.350;2022-07-29T05:20:59;19.00;53.80
11140;DHT22;5624;49.388;11.350;2022-07-29T05:23:25;19.10;53.60
11140;DHT22;5624;49.388;11.350;2022-07-29T05:25:51;19.20;54.40
11140;DHT22;5624;49.388;11.350;2022-07-29T05:28:17;19.30;53.40
11140;DHT22;5624;49.388;11.350;2022-07-29T05:30:43;19.40;54.30
11140;DHT22;5624;49.388;11.350;2022-07-29T05:33:10;19.40;53.80
11140;DHT22;5624;49.388;11.350;2022-07-29T05:35:36;19.50;53.30
11140;DHT22;5624;49.388;11.350;2022-07-29T05:38:03;19.50;53.00
11140;DHT22;5624;49.388;11.350;2022-07-29T05:40:29;19.60;52.80
11140;DHT22;5624;49.388;11.350;2022-07-29T05:42:55;19.70;52.70
11140;DHT22;5624;49.388;11.350;2022-07-29T05:45:21;19.90;51.50
11140;DHT22;5624;49.388;11.350;2022-07-29T05:47:46;20.40;51.70
11140;DHT22;5624;49.388;11.350;2022-07-29T05:50:12;20.80;52.40
11140;DHT22;5624;49.388;11.350;2022-07-29T05:52:38;20.90;48.90
11140;DHT22;5624;49.388;11.350;2022-07-29T05:55:05;21.00;48.80
11140;DHT22;5624;49.388;11.350;2022-07-29T05:57:31;21.10;48.40
11140;DHT22;5624;49.388;11.350;2022-07-29T05:59:57;21.20;47.70
11140;DHT22;5624;49.388;11.350;2022-07-29T06:02:23;21.30;48.00
11140;DHT22;5624;49.388;11.350;2022-07-29T06:04:48;21.30;47.60
11140;DHT22;5624;49.388;11.350;2022-07-29T06:07:15;21.30;47.60
11140;DHT22;5624;49.388;11.350;2022-07-29T06:09:42;21.40;47.80
11140;DHT22;5624;49.388;11.350;2022-07-29T06:12:08;21.60;47.50
11140;DHT22;5624;49.388;11.350;2022-07-29T06:14:34;22.10;47.10
11140;DHT22;5624;49.388;11.350;2022-07-29T06:17:00;22.40;46.00
11140;DHT22;5624;49.388;11.350;2022-07-29T06:19:26;22.70;44.60
11140;DHT22;5624;49.388;11.350;2022-07-29T06:21:52;23.30;42.80
11140;DHT22;5624;49.388;11.350;2022-07-29T06:24:18;23.40;42.40
11140;DHT22;5624;49.388;11.350;2022-07-29T06:26:44;24.00;41.60
11140;DHT22;5624;49.388;11.350;2022-07-29T06:29:10;24.30;40.70
11140;DHT22;5624;49.388;11.350;2022-07-29T06:31:36;23.90;41.30
11140;DHT22;5624;49.388;11.350;2022-07-29T06:34:03;23.30;42.70
11140;DHT22;5624;49.388;11.350;2022-07-29T06:36:29;23.00;43.60
11140;DHT22;5624;49.388;11.350;2022-07-29T06:38:55;22.50;44.90
11140;DHT22;5624;49.388;11.350;2022-07-29T06:41:20;22.20;46.40
11140;DHT22;5624;49.388;11.350;2022-07-29T06:43:48;22.40;45.80
11140;DHT22;5624;49.388;11.350;2022-07-29T06:46:15;22.90;45.40
11140;DHT22;5624;49.388;11.350;2022-07-29T06:48:43;23.10;44.20
11140;DHT22;5624;49.388;11.350;2022-07-29T06:51:10;23.20;44.00
11140;DHT22;5624;49.388;11.350;2022-07-29T06:53:37;23.00;45.20
11140;DHT22;5624;49.388;11.350;2022-07-29T06:56:05;23.40;44.00
11140;DHT22;5624;49.388;11.350;2022-07-29T06:58:33;23.60;43.10
11140;DHT22;5624;49.388;11.350;2022-07-29T07:01:03;23.60;44.10
11140;DHT22;5624;49.388;11.350;2022-07-29T07:03:29;23.80;44.10
11140;DHT22;5624;49.388;11.350;2022-07-29T07:05:55;24.80;42.10
11140;DHT22;5624;49.388;11.350;2022-07-29T07:08:21;25.00;41.40
11140;DHT22;5624;49.388;11.350;2022-07-29T07:10:48;25.20;43.30
11140;DHT22;5624;49.388;11.350;2022-07-29T07:13:14;25.70;39.40
11140;DHT22;5624;49.388;11.350;2022-07-29T07:15:40;25.80;40.40
11140;DHT22;5624;49.388;11.350;2022-07-29T07:18:06;26.30;40.10
11140;DHT22;5624;49.388;11.350;2022-07-29T07:20:33;26.10;38.70
11140;DHT22;5624;49.388;11.350;2022-07-29T07:22:59;25.90;39.40
11140;DHT22;5624;49.388;11.350;2022-07-29T07:25:25;25.60;40.80
11140;DHT22;5624;49.388;11.350;2022-07-29T07:27:51;26.30;39.20
11140;DHT22;5624;49.388;11.350;2022-07-29T07:30:17;26.50;40.30
11140;DHT22;5624;49.388;11.350;2022-07-29T07:32:43;26.70;39.00
11140;DHT22;5624;49.388;11.350;2022-07-29T07:35:10;26.70;38.20
11140;DHT22;5624;49.388;11.350;2022-07-29T07:37:36;26.90;38.90
11140;DHT22;5624;49.388;11.350;2022-07-29T07:40:03;27.20;37.80
11140;DHT22;5624;49.388;11.350;2022-07-29T07:42:29;26.90;38.60
11140;DHT22;5624;49.388;11.350;2022-07-29T07:44:55;27.50;39.30
11140;DHT22;5624;49.388;11.350;2022-07-29T07:47:21;27.40;37.60
11140;DHT22;5624;49.388;11.350;2022-07-29T07:49:47;27.10;37.50
11140;DHT22;5624;49.388;11.350;2022-07-29T07:52:14;26.50;38.40
11140;DHT22;5624;49.388;11.350;2022-07-29T07:54:40;26.20;39.50
11140;DHT22;5624;49.388;11.350;2022-07-29T07:57:05;26.00;41.20
11140;DHT22;5624;49.388;11.350;2022-07-29T07:59:32;25.70;39.90
11140;DHT22;5624;49.388;11.350;2022-07-29T08:01:57;25.70;41.10
11140;DHT22;5624;49.388;11.350;2022-07-29T08:04:23;25.90;40.50
11140;DHT22;5624;49.388;11.350;2022-07-29T08:06:50;26.10;40.80
11140;DHT22;5624;49.388;11.350;2022-07-29T08:09:16;26.20;40.40
11140;DHT22;5624;49.388;11.350;2022-07-29T08:11:42;26.40;39.20
11140;DHT22;5624;49.388;11.350;2022-07-29T08:14:07;26.40;40.60
11140;DHT22;5624;49.388;11.350;2022-07-29T08:16:33;27.10;40.40
11140;DHT22;5624;49.388;11.350;2022-07-29T08:18:59;28.10;36.70
11140;DHT22;5624;49.388;11.350;2022-07-29T08:21:25;28.90;35.90
11140;DHT22;5624;49.388;11.350;2022-07-29T08:23:51;29.70;36.70
11140;DHT22;5624;49.388;11.350;2022-07-29T08:26:41;30.80;34.90
11140;DHT22;5624;49.388;11.350;2022-07-29T08:29:07;31.20;33.30
11140;DHT22;5624;49.388;11.350;2022-07-29T08:31:33;32.00;32.20
11140;DHT22;5624;49.388;11.350;2022-07-29T08:33:59;32.10;30.70
11140;DHT22;5624;49.388;11.350;2022-07-29T08:36:25;31.40;31.90
11140;DHT22;5624;49.388;11.350;2022-07-29T08:38:52;30.60;32.80
11140;DHT22;5624;49.388;11.350;2022-07-29T08:41:21;30.40;34.10
11140;DHT22;5624;49.388;11.350;2022-07-29T08:43:48;30.30;34.60
11140;DHT22;5624;49.388;11.350;2022-07-29T08:46:15;30.50;36.00
11140;DHT22;5624;49.388;11.350;2022-07-29T08:48:42;30.50;34.40
11140;DHT22;5624;49.388;11.350;2022-07-29T08:51:08;30.40;35.90
11140;DHT22;5624;49.388;11.350;2022-07-29T08:53:41;30.40;33.70
11140;DHT22;5624;49.388;11.350;2022-07-29T08:56:11;30.50;34.00
11140;DHT22;5624;49.388;11.350;2022-07-29T08:58:38;30.80;33.40
11140;DHT22;5624;49.388;11.350;2022-07-29T09:01:04;31.40;32.50
11140;DHT22;5624;49.388;11.350;2022-07-29T09:03:32;30.10;34.30
11140;DHT22;5624;49.388;11.350;2022-07-29T09:06:01;29.10;36.30
11140;DHT22;5624;49.388;11.350;2022-07-29T09:08:27;28.80;36.20
11140;DHT22;5624;49.388;11.350;2022-07-29T09:10:54;28.30;37.40
11140;DHT22;5624;49.388;11.350;2022-07-29T09:13:22;27.90;38.10
11140;DHT22;5624;49.388;11.350;2022-07-29T09:15:48;27.90;38.50
11140;DHT22;5624;49.388;11.350;2022-07-29T09:20:58;27.70;40.50
11140;DHT22;5624;49.388;11.350;2022-07-29T09:26:28;28.20;38.00
11140;DHT22;5624;49.388;11.350;2022-07-29T09:28:54;28.80;37.90
11140;DHT22;5624;49.388;11.350;2022-07-29T09:31:32;29.70;37.00
11140;DHT22;5624;49.388;11.350;2022-07-29T09:34:00;30.40;35.10
11140;DHT22;5624;49.388;11.350;2022-07-29T09:36:26;30.40;35.10
11140;DHT22;5624;49.388;11.350;2022-07-29T09:39:02;30.90;34.00
11140;DHT22;5624;49.388;11.350;2022-07-29T09:41:29;31.10;34.20
11140;DHT22;5624;49.388;11.350;2022-07-29T09:43:59;31.20;35.20
11140;DHT22;5624;49.388;11.350;2022-07-29T09:46:25;31.40;33.50
11140;DHT22;5624;49.388;11.350;2022-07-29T09:49:11;31.80;33.10
11140;DHT22;5624;49.388;11.350;2022-07-29T09:51:37;32.00;32.30
11140;DHT22;5624;49.388;11.350;2022-07-29T09:54:25;31.60;33.40
11140;DHT22;5624;49.388;11.350;2022-07-29T09:56:54;31.10;34.40
11140;DHT22;5624;49.388;11.350;2022-07-29T09:59:20;31.50;34.50
11140;DHT22;5624;49.388;11.350;2022-07-29T10:01:48;32.40;33.30
11140;DHT22;5624;49.388;11.350;2022-07-29T10:04:18;32.90;33.10
11140;DHT22;5624;49.388;11.350;2022-07-29T10:09:23;33.30;31.30
11140;DHT22;5624;49.388;11.350;2022-07-29T10:12:10;32.40;32.80
11140;DHT22;5624;49.388;11.350;2022-07-29T10:14:39;32.30;32.90
11140;DHT22;5624;49.388;11.350;2022-07-29T10:17:07;31.90;35.00
11140;DHT22;5624;49.388;11.350;2022-07-29T10:19:36;31.80;33.60
11140;DHT22;5624;49.388;11.350;2022-07-29T10:22:06;31.30;34.00
11140;DHT22;5624;49.388;11.350;2022-07-29T10:24:32;31.00;34.30
11140;DHT22;5624;49.388;11.350;2022-07-29T10:27:00;30.90;35.10
11140;DHT22;5624;49.388;11.350;2022-07-29T10:29:26;30.30;36.70
11140;DHT22;5624;49.388;11.350;2022-07-29T10:32:25;30.20;37.40
11140;DHT22;5624;49.388;11.350;2022-07-29T10:43:29;30.60;36.30
11140;DHT22;5624;49.388;11.350;2022-07-29T10:45:59;29.50;38.30
11140;DHT22;5624;49.388;11.350;2022-07-29T10:48:26;30.10;37.50
11140;DHT22;5624;49.388;11.350;2022-07-29T10:51:02;30.50;37.50
11140;DHT22;5624;49.388;11.350;2022-07-29T10:53:51;31.30;37.70
11140;DHT22;5624;49.388;11.350;2022-07-29T10:56:28;31.40;34.90
11140;DHT22;5624;49.388;11.350;2022-07-29T11:01:44;31.30;35.70
11140;DHT22;5624;49.388;11.350;2022-07-29T11:04:10;31.20;36.10
11140;DHT22;5624;49.388;11.350;2022-07-29T11:09:29;31.60;34.70
11140;DHT22;5624;49.388;11.350;2022-07-29T11:11:59;30.90;36.10
11140;DHT22;5624;49.388;11.350;2022-07-29T11:17:19;29.60;37.90
11140;DHT22;5624;49.388;11.350;2022-07-29T11:19:44;29.80;38.20
11140;DHT22;5624;49.388;11.350;2022-07-29T11:22:11;30.60;37.20
11140;DHT22;5624;49.388;11.350;2022-07-29T11:24:37;30.90;37.30
11140;DHT22;5624;49.388;11.350;2022-07-29T11:29:48;31.50;34.70
11140;DHT22;5624;49.388;11.350;2022-07-29T11:32:15;30.40;36.70
11140;DHT22;5624;49.388;11.350;2022-07-29T11:34:43;29.40;38.20
11140;DHT22;5624;49.388;11.350;2022-07-29T11:39:39;28.70;40.10
11140;DHT22;5624;49.388;11.350;2022-07-29T11:47:34;29.10;39.50
11140;DHT22;5624;49.388;11.350;2022-07-29T11:50:03;29.30;37.90
11140;DHT22;5624;49.388;11.350;2022-07-29T11:52:35;29.30;37.60
11140;DHT22;5624;49.388;11.350;2022-07-29T11:55:04;29.10;38.90
11140;DHT22;5624;49.388;11.350;2022-07-29T11:57:30;29.00;38.50
11140;DHT22;5624;49.388;11.350;2022-07-29T11:59:57;29.20;38.90
11140;DHT22;5624;49.388;11.350;2022-07-29T12:02:24;29.50;38.70
11140;DHT22;5624;49.388;11.350;2022-07-29T12:04:56;29.70;37.70
11140;DHT22;5624;49.388;11.350;2022-07-29T12:07:33;29.60;39.00
11140;DHT22;5624;49.388;11.350;2022-07-29T12:10:00;29.70;38.80
11140;DHT22;5624;49.388;11.350;2022-07-29T12:12:26;29.60;38.00
11140;DHT22;5624;49.388;11.350;2022-07-29T12:14:52;29.70;38.60
11140;DHT22;5624;49.388;11.350;2022-07-29T12:17:31;29.70;37.10
11140;DHT22;5624;49.388;11.350;2022-07-29T12:19:59;29.50;38.10
11140;DHT22;5624;49.388;11.350;2022-07-29T12:22:41;29.40;38.10
11140;DHT22;5624;49.388;11.350;2022-07-29T12:25:10;29.60;37.90
11140;DHT22;5624;49.388;11.350;2022-07-29T12:27:37;29.80;38.10
11140;DHT22;5624;49.388;11.350;2022-07-29T12:30:06;29.90;37.40
11140;DHT22;5624;49.388;11.350;2022-07-29T12:32:40;30.10;36.90
11140;DHT22;5624;49.388;11.350;2022-07-29T12:35:17;30.50;37.10
11140;DHT22;5624;49.388;11.350;2022-07-29T12:37:46;30.80;36.40
11140;DHT22;5624;49.388;11.350;2022-07-29T12:40:18;30.50;35.50
11140;DHT22;5624;49.388;11.350;2022-07-29T12:43:13;30.40;36.30
11140;DHT22;5624;49.388;11.350;2022-07-29T12:45:42;30.60;34.80
11140;DHT22;5624;49.388;11.350;2022-07-29T12:48:08;30.60;35.20
11140;DHT22;5624;49.388;11.350;2022-07-29T12:53:20;30.90;35.10
11140;DHT22;5624;49.388;11.350;2022-07-29T12:55:48;30.40;35.90
11140;DHT22;5624;49.388;11.350;2022-07-29T12:58:47;30.20;36.60
11140;DHT22;5624;49.388;11.350;2022-07-29T13:01:17;29.80;37.00
11140;DHT22;5624;49.388;11.350;2022-07-29T13:03:56;28.70;37.30
11140;DHT22;5624;49.388;11.350;2022-07-29T13:06:41;27.90;38.70
11140;DHT22;5624;49.388;11.350;2022-07-29T13:11:49;27.20;38.20
11140;DHT22;5624;49.388;11.350;2022-07-29T13:14:32;27.00;37.50
11140;DHT22;5624;49.388;11.350;2022-07-29T13:17:07;26.60;38.60
11140;DHT22;5624;49.388;11.350;2022-07-29T13:19:40;26.40;38.90
11140;DHT22;5624;49.388;11.350;2022-07-29T13:22:08;26.40;38.80
11140;DHT22;5624;49.388;11.350;2022-07-29T13:25:03;26.30;39.80
11140;DHT22;5624;49.388;11.350;2022-07-29T13:27:31;26.00;41.60
11140;DHT22;5624;49.388;11.350;2022-07-29T13:29:59;25.50;43.40
11140;DHT22;5624;49.388;11.350;2022-07-29T13:32:28;25.30;44.50
11140;DHT22;5624;49.388;11.350;2022-07-29T13:35:02;25.00;46.90
11140;DHT22;5624;49.388;11.350;2022-07-29T13:37:28;24.70;52.40
11140;DHT22;5624;49.388;11.350;2022-07-29T13:39:58;24.40;52.10
11140;DHT22;5624;49.388;11.350;2022-07-29T13:42:25;24.00;54.40
11140;DHT22;5624;49.388;11.350;2022-07-29T13:44:52;23.40;57.50
11140;DHT22;5624;49.388;11.350;2022-07-29T13:47:22;22.90;59.90
11140;DHT22;5624;49.388;11.350;2022-07-29T13:49:48;22.60;63.10
11140;DHT22;5624;49.388;11.350;2022-07-29T13:52:14;22.50;62.10
11140;DHT22;5624;49.388;11.350;2022-07-29T13:54:40;22.40;69.90
11140;DHT22;5624;49.388;11.350;2022-07-29T13:57:06;22.30;70.80
11140;DHT22;5624;49.388;11.350;2022-07-29T13:59:32;22.20;66.90
11140;DHT22;5624;49.388;11.350;2022-07-29T14:01:57;22.10;66.90
11140;DHT22;5624;49.388;11.350;2022-07-29T14:04:23;21.90;68.50
11140;DHT22;5624;49.388;11.350;2022-07-29T14:06:50;21.80;67.20
11140;DHT22;5624;49.388;11.350;2022-07-29T14:09:16;21.70;70.00
11140;DHT22;5624;49.388;11.350;2022-07-29T14:11:43;21.60;68.70
11140;DHT22;5624;49.388;11.350;2022-07-29T14:14:11;21.70;70.10
11140;DHT22;5624;49.388;11.350;2022-07-29T14:16:37;21.70;71.80
11140;DHT22;5624;49.388;11.350;2022-07-29T14:19:03;21.70;69.80
11140;DHT22;5624;49.388;11.350;2022-07-29T14:21:29;21.80;69.40
11140;DHT22;5624;49.388;11.350;2022-07-29T14:23:55;22.00;68.60
11140;DHT22;5624;49.388;11.350;2022-07-29T14:26:21;22.10;67.90
11140;DHT22;5624;49.388;11.350;2022-07-29T14:28:48;22.40;67.40
11140;DHT22;5624;49.388;11.350;2022-07-29T14:31:15;22.60;66.10
11140;DHT22;5624;49.388;11.350;2022-07-29T14:33:41;22.80;65.10
11140;DHT22;5624;49.388;11.350;2022-07-29T14:36:08;22.90;64.10
11140;DHT22;5624;49.388;11.350;2022-07-29T14:38:35;23.00;62.40
11140;DHT22;5624;49.388;11.350;2022-07-29T14:41:01;23.30;65.30
11140;DHT22;5624;49.388;11.350;2022-07-29T14:43:27;23.50;61.60
11140;DHT22;5624;49.388;11.350;2022-07-29T14:45:53;23.70;60.50
11140;DHT22;5624;49.388;11.350;2022-07-29T14:48:19;23.80;60.00
11140;DHT22;5624;49.388;11.350;2022-07-29T14:50:45;24.20;59.10
11140;DHT22;5624;49.388;11.350;2022-07-29T14:53:11;24.50;56.80
11140;DHT22;5624;49.388;11.350;2022-07-29T14:55:41;24.80;58.30
11140;DHT22;5624;49.388;11.350;2022-07-29T14:58:07;24.80;57.30
11140;DHT22;5624;49.388;11.350;2022-07-29T15:00:33;24.90;54.10
11140;DHT22;5624;49.388;11.350;2022-07-29T15:03:00;24.80;53.70
11140;DHT22;5624;49.388;11.350;2022-07-29T15:05:26;24.80;54.60
11140;DHT22;5624;49.388;11.350;2022-07-29T15:07:52;24.80;52.00
11140;DHT22;5624;49.388;11.350;2022-07-29T15:10:18;24.60;49.60
11140;DHT22;5624;49.388;11.350;2022-07-29T15:12:44;24.50;49.60
11140;DHT22;5624;49.388;11.350;2022-07-29T15:15:10;24.60;50.40
11140;DHT22;5624;49.388;11.350;2022-07-29T15:17:36;24.50;52.10
11140;DHT22;5624;49.388;11.350;2022-07-29T15:20:03;24.70;52.70
11140;DHT22;5624;49.388;11.350;2022-07-29T15:22:29;24.80;51.30
11140;DHT22;5624;49.388;11.350;2022-07-29T15:24:55;24.90;51.80
11140;DHT22;5624;49.388;11.350;2022-07-29T15:27:20;24.90;50.40
11140;DHT22;5624;49.388;11.350;2022-07-29T15:29:46;25.00;50.80
11140;DHT22;5624;49.388;11.350;2022-07-29T15:32:12;25.10;50.60
11140;DHT22;5624;49.388;11.350;2022-07-29T15:34:38;25.20;49.60
11140;DHT22;5624;49.388;11.350;2022-07-29T15:37:04;25.30;50.40
11140;DHT22;5624;49.388;11.350;2022-07-29T15:39:30;25.60;49.10
11140;DHT22;5624;49.388;11.350;2022-07-29T15:41:56;25.70;49.00
11140;DHT22;5624;49.388;11.350;2022-07-29T15:44:24;25.70;50.30
11140;DHT22;5624;49.388;11.350;2022-07-29T15:46:50;25.70;50.00
11140;DHT22;5624;49.388;11.350;2022-07-29T15:49:30;25.80;50.40
11140;DHT22;5624;49.388;11.350;2022-07-29T15:52:00;25.80;50.40
11140;DHT22;5624;49.388;11.350;2022-07-29T15:54:29;25.80;50.30
11140;DHT22;5624;49.388;11.350;2022-07-29T15:56:55;25.80;50.00
11140;DHT22;5624;49.388;11.350;2022-07-29T15:59:22;25.70;50.50
11140;DHT22;5624;49.388;11.350;2022-07-29T16:01:48;25.60;51.00
11140;DHT22;5624;49.388;11.350;2022-07-29T16:04:14;25.40;57.80
11140;DHT22;5624;49.388;11.350;2022-07-29T16:06:40;25.00;61.60
11140;DHT22;5624;49.388;11.350;2022-07-29T16:09:06;24.60;64.20
11140;DHT22;5624;49.388;11.350;2022-07-29T16:11:31;24.20;65.20
11140;DHT22;5624;49.388;11.350;2022-07-29T16:13:58;23.80;65.10
11140;DHT22;5624;49.388;11.350;2022-07-29T16:16:24;23.30;65.80
11140;DHT22;5624;49.388;11.350;2022-07-29T16:18:50;22.90;68.00
11140;DHT22;5624;49.388;11.350;2022-07-29T16:21:16;22.70;70.20
11140;DHT22;5624;49.388;11.350;2022-07-29T16:23:42;22.30;73.20
11140;DHT22;5624;49.388;11.350;2022-07-29T16:26:08;21.90;74.20
11140;DHT22;5624;49.388;11.350;2022-07-29T16:28:33;21.50;76.20
11140;DHT22;5624;49.388;11.350;2022-07-29T16:31:00;21.20;77.50
11140;DHT22;5624;49.388;11.350;2022-07-29T16:33:26;20.80;78.30